createdAt,value
2022-09-01T00:00:05.412Z,60.40
2022-09-01T00:02:34.134Z,60.47
2022-09-01T00:05:02.374Z,60.69
2022-09-01T00:07:30.833Z,60.74
2022-09-01T00:09:59.862Z,60.68
2022-09-01T00:12:27.656Z,60.36
2022-09-01T00:14:54.918Z,60.54
2022-09-01T00:17:22.606Z,60.42
2022-09-01T00:19:49.780Z,60.27
2022-09-01T00:22:17.333Z,60.43
2022-09-01T00:24:44.465Z,60.40
2022-09-01T00:27:11.526Z,60.15
2022-09-01T00:29:43.334Z,60.16
2022-09-01T00:32:12.321Z,60.19
2022-09-01T00:34:40.025Z,60.53
2022-09-01T00:37:07.950Z,60.55
2022-09-01T00:39:35.119Z,60.56
2022-09-01T00:42:02.554Z,60.63
2022-09-01T00:44:31.214Z,60.68
2022-09-01T00:46:59.901Z,60.55
2022-09-01T00:49:38.814Z,60.50
2022-09-01T00:52:24.936Z,60.20
2022-09-01T00:54:58.674Z,60.29
2022-09-01T00:57:27.256Z,60.22
2022-09-01T01:00:01.538Z,60.34
2022-09-01T01:02:28.834Z,60.03
2022-09-01T01:05:00.663Z,60.21
2022-09-01T01:07:29.270Z,60.41
2022-09-01T01:09:56.919Z,60.14
2022-09-01T01:12:24.218Z,60.23
2022-09-01T01:14:51.504Z,60.66
2022-09-01T01:17:22.881Z,60.67
2022-09-01T01:20:17.108Z,60.68
2022-09-01T01:23:15.994Z,60.63
2022-09-01T01:25:59.059Z,61.12
2022-09-01T01:28:41.225Z,61.13
2022-09-01T01:31:16.420Z,61.12
2022-09-01T01:33:51.890Z,61.10
2022-09-01T01:36:32.387Z,61.19
2022-09-01T01:39:18.213Z,61.29
2022-09-01T01:41:49.019Z,61.39
2022-09-01T01:44:22.561Z,61.44
2022-09-01T01:46:53.626Z,61.12
2022-09-01T01:49:26.237Z,61.46
2022-09-01T01:51:56.217Z,61.35
2022-09-01T01:54:31.325Z,61.37
2022-09-01T01:57:00.892Z,61.32
2022-09-01T01:59:29.658Z,61.01
2022-09-01T02:01:58.367Z,60.61
2022-09-01T02:04:26.278Z,60.81
2022-09-01T02:06:55.883Z,61.09
2022-09-01T02:09:23.420Z,60.92
2022-09-01T02:11:57.135Z,60.32
2022-09-01T02:14:24.625Z,60.63
2022-09-01T02:16:55.975Z,60.53
2022-09-01T02:19:23.430Z,60.50
2022-09-01T02:21:54.420Z,60.74
2022-09-01T02:24:22.640Z,60.92
2022-09-01T02:26:50.597Z,61.12
2022-09-01T02:29:22.599Z,61.50
2022-09-01T02:31:55.096Z,61.65
2022-09-01T02:34:24.617Z,61.68
2022-09-01T02:36:55.868Z,61.60
2022-09-01T02:39:33.605Z,61.43
2022-09-01T02:42:01.682Z,61.46
2022-09-01T02:44:31.182Z,61.77
2022-09-01T02:47:01.790Z,61.79
2022-09-01T02:49:30.000Z,61.97
2022-09-01T02:52:01.850Z,62.00
2022-09-01T02:54:32.567Z,62.11
2022-09-01T02:57:00.874Z,62.08
2022-09-01T02:59:30.512Z,61.96
2022-09-01T03:02:00.578Z,61.95
2022-09-01T03:04:28.074Z,61.73
2022-09-01T03:06:58.806Z,61.73
2022-09-01T03:09:26.381Z,61.34
2022-09-01T03:11:54.953Z,61.74
2022-09-01T03:14:26.070Z,61.12
2022-09-01T03:16:54.267Z,60.81
2022-09-01T03:19:21.593Z,60.52
2022-09-01T03:21:49.945Z,60.79
2022-09-01T03:24:22.008Z,61.10
2022-09-01T03:26:51.516Z,60.65
2022-09-01T03:29:20.029Z,60.50
2022-09-01T03:31:47.911Z,60.12
2022-09-01T03:34:16.597Z,60.48
2022-09-01T03:36:54.467Z,60.39
2022-09-01T03:39:29.758Z,60.99
2022-09-01T03:41:58.388Z,61.20
2022-09-01T03:44:27.120Z,61.13
2022-09-01T03:46:54.273Z,60.95
2022-09-01T03:49:25.151Z,60.63
2022-09-01T03:51:55.332Z,60.37
2022-09-01T03:54:25.903Z,60.37
2022-09-01T03:56:53.190Z,60.17
2022-09-01T03:59:22.529Z,60.53
2022-09-01T04:01:49.706Z,60.92
2022-09-01T04:04:17.384Z,60.88
2022-09-01T04:06:46.919Z,60.74
2022-09-01T04:09:15.198Z,60.69
2022-09-01T04:11:46.970Z,60.89
2022-09-01T04:14:15.788Z,61.14
2022-09-01T04:17:03.261Z,60.77
2022-09-01T04:19:39.422Z,60.65
2022-09-01T04:22:14.341Z,60.94
2022-09-01T04:24:45.532Z,60.79
2022-09-01T04:27:14.556Z,60.80
2022-09-01T04:29:42.751Z,60.58
2022-09-01T04:32:13.279Z,60.77
2022-09-01T04:34:44.053Z,60.86
2022-09-01T04:37:21.854Z,61.03
2022-09-01T04:39:57.555Z,61.03
2022-09-01T04:42:32.430Z,61.05
2022-09-01T04:45:10.455Z,60.81
2022-09-01T04:47:45.506Z,60.60
2022-09-01T04:50:17.865Z,60.35
2022-09-01T04:53:06.256Z,59.74
2022-09-01T04:55:43.936Z,59.63
2022-09-01T04:58:17.449Z,59.65
2022-09-01T05:00:48.317Z,59.24
2022-09-01T05:03:21.521Z,58.35
2022-09-01T05:06:18.133Z,58.33
2022-09-01T05:08:57.836Z,57.97
2022-09-01T05:11:45.575Z,58.27
2022-09-01T05:14:23.036Z,58.17
2022-09-01T05:16:54.048Z,57.22
2022-09-01T05:19:22.184Z,57.40
2022-09-01T05:21:50.561Z,57.65
2022-09-01T05:24:21.895Z,57.59
2022-09-01T05:26:50.820Z,57.46
2022-09-01T05:29:19.114Z,57.19
2022-09-01T05:31:50.291Z,57.09
2022-09-01T05:34:26.459Z,56.96
2022-09-01T05:36:59.487Z,56.65
2022-09-01T05:39:28.656Z,56.56
2022-09-01T05:41:56.093Z,56.31
2022-09-01T05:44:23.756Z,55.51
2022-09-01T05:46:53.680Z,55.68
2022-09-01T05:49:21.571Z,55.75
2022-09-01T05:51:58.999Z,55.70
2022-09-01T05:54:29.169Z,55.67
2022-09-01T05:57:23.484Z,54.53
2022-09-01T05:59:53.906Z,54.24
2022-09-01T06:02:26.221Z,53.97
2022-09-01T06:04:56.145Z,53.57
2022-09-01T06:07:28.710Z,53.35
2022-09-01T06:10:00.027Z,53.14
2022-09-01T06:12:29.031Z,52.89
2022-09-01T06:14:58.018Z,52.87
2022-09-01T06:17:27.388Z,53.23
2022-09-01T06:19:58.630Z,52.61
2022-09-01T06:22:28.725Z,52.01
2022-09-01T06:25:02.359Z,51.55
2022-09-01T06:27:38.748Z,51.50
2022-09-01T06:30:15.015Z,50.42
2022-09-01T06:32:53.964Z,49.86
2022-09-01T06:35:29.950Z,49.79
2022-09-01T06:37:58.760Z,50.13
2022-09-01T06:40:45.248Z,49.39
2022-09-01T06:43:16.232Z,49.64
2022-09-01T06:45:54.420Z,48.82
2022-09-01T06:48:23.805Z,47.92
2022-09-01T06:51:20.992Z,47.35
2022-09-01T06:53:59.726Z,46.68
2022-09-01T06:56:42.768Z,47.11
2022-09-01T06:59:15.668Z,47.11
2022-09-01T07:01:49.188Z,47.50
2022-09-01T07:04:23.200Z,47.10
2022-09-01T07:06:59.368Z,47.81
2022-09-01T07:09:47.618Z,47.18
2022-09-01T07:12:30.043Z,48.01
2022-09-01T07:17:52.258Z,47.13
2022-09-01T07:20:25.835Z,46.83
2022-09-01T07:23:05.723Z,46.77
2022-09-01T07:26:00.630Z,46.18
2022-09-01T07:39:52.193Z,44.56
2022-09-01T07:42:56.765Z,45.49
2022-09-01T07:45:59.768Z,45.23
2022-09-01T07:49:01.105Z,44.87
2022-09-01T07:51:37.124Z,45.31
2022-09-01T07:54:06.794Z,45.14
2022-09-01T07:56:39.919Z,45.10
2022-09-01T07:59:15.294Z,44.58
2022-09-01T08:02:08.960Z,44.29
2022-09-01T08:04:40.166Z,44.68
2022-09-01T08:07:15.436Z,44.84
2022-09-01T08:09:44.768Z,44.71
2022-09-01T08:12:13.985Z,44.00
2022-09-01T08:14:48.117Z,43.62
2022-09-01T08:17:18.042Z,44.31
2022-09-01T08:20:08.800Z,44.10
2022-09-01T08:22:57.791Z,43.57
2022-09-01T08:25:29.084Z,43.11
2022-09-01T08:28:00.375Z,41.99
2022-09-01T08:30:28.827Z,41.96
2022-09-01T08:32:56.253Z,42.41
2022-09-01T08:35:24.235Z,41.78
2022-09-01T08:37:54.152Z,41.77
2022-09-01T08:40:23.936Z,42.25
2022-09-01T08:43:25.887Z,41.40
2022-09-01T08:46:08.800Z,41.24
2022-09-01T08:49:24.130Z,41.38
2022-09-01T08:52:41.460Z,40.71
2022-09-01T08:55:25.959Z,40.84
2022-09-01T08:57:59.854Z,41.20
2022-09-01T09:00:39.551Z,41.82
2022-09-01T09:03:11.582Z,41.42
2022-09-01T09:05:57.353Z,40.25
2022-09-01T09:08:51.646Z,39.65
2022-09-01T09:12:04.370Z,39.77
2022-09-01T09:15:19.217Z,38.64
2022-09-01T09:18:00.382Z,38.58
2022-09-01T09:20:29.227Z,37.96
2022-09-01T09:22:59.771Z,37.83
2022-09-01T09:25:29.764Z,37.54
2022-09-01T09:28:04.053Z,36.96
2022-09-01T09:30:32.595Z,37.02
2022-09-01T09:35:54.244Z,36.59
2022-09-01T09:38:29.504Z,35.81
2022-09-01T09:41:18.943Z,35.56
2022-09-01T09:44:08.479Z,35.23
2022-09-01T09:46:43.639Z,35.56
2022-09-01T09:49:35.909Z,35.90
2022-09-01T09:52:09.850Z,35.78
2022-09-01T09:54:41.025Z,35.44
2022-09-01T09:57:18.193Z,35.24
2022-09-01T09:59:59.343Z,34.63
2022-09-01T10:02:44.851Z,34.87
2022-09-01T10:05:27.980Z,34.90
2022-09-01T10:07:57.145Z,34.97
2022-09-01T10:10:41.824Z,34.19
2022-09-01T10:13:14.776Z,34.87
2022-09-01T10:15:51.108Z,34.45
2022-09-01T10:18:31.332Z,33.96
2022-09-01T10:21:18.077Z,34.06
2022-09-01T10:23:45.379Z,33.48
2022-09-01T10:26:38.379Z,33.25
2022-09-01T10:29:16.000Z,33.26
2022-09-01T10:31:43.657Z,33.13
2022-09-01T10:34:19.714Z,32.07
2022-09-01T10:36:54.909Z,32.69
2022-09-01T10:39:29.467Z,32.89
2022-09-01T10:42:07.621Z,32.52
2022-09-01T10:45:02.069Z,32.10
2022-09-01T10:47:33.923Z,32.60
2022-09-01T10:50:24.865Z,33.29
2022-09-01T10:53:05.274Z,32.79
2022-09-01T10:55:41.788Z,32.80
2022-09-01T11:01:48.725Z,32.97
2022-09-01T11:04:22.661Z,33.40
2022-09-01T11:07:12.598Z,32.95
2022-09-01T11:10:11.899Z,34.10
2022-09-01T11:13:04.653Z,33.75
2022-09-01T11:15:45.632Z,34.00
2022-09-01T11:18:31.346Z,33.98
2022-09-01T11:21:25.798Z,33.07
2022-09-01T11:25:00.380Z,32.04
2022-09-01T11:27:50.610Z,31.96
2022-09-01T11:30:34.624Z,31.14
2022-09-01T11:33:48.522Z,31.03
2022-09-01T11:36:20.112Z,29.61
2022-09-01T11:39:03.848Z,29.69
2022-09-01T11:41:42.945Z,29.68
2022-09-01T11:44:35.800Z,29.48
2022-09-01T11:47:13.506Z,29.67
2022-09-01T11:50:08.873Z,29.56
2022-09-01T11:52:38.414Z,28.66
2022-09-01T11:55:07.884Z,28.53
2022-09-01T11:57:41.268Z,28.47
2022-09-01T12:00:13.945Z,28.45
2022-09-01T12:02:52.171Z,28.38
2022-09-01T12:05:34.928Z,28.86
2022-09-01T12:08:14.555Z,29.64
2022-09-01T12:10:45.069Z,30.64
2022-09-01T12:13:23.300Z,31.84
2022-09-01T12:16:20.951Z,32.21
2022-09-01T12:18:52.192Z,32.08
2022-09-01T12:21:29.131Z,32.05
2022-09-01T12:24:17.732Z,32.29
2022-09-01T12:26:47.092Z,32.17
2022-09-01T12:29:16.396Z,32.35
2022-09-01T12:31:47.099Z,32.78
2022-09-01T12:35:11.518Z,32.95
2022-09-01T12:37:39.087Z,32.02
2022-09-01T12:40:07.630Z,32.33
2022-09-01T12:42:41.125Z,31.61
2022-09-01T12:45:13.134Z,32.43
2022-09-01T12:47:50.320Z,32.08
2022-09-01T12:50:17.659Z,32.39
2022-09-01T12:52:54.861Z,31.95
2022-09-01T12:58:12.671Z,30.35
2022-09-01T13:01:05.748Z,29.80
2022-09-01T13:03:36.285Z,29.35
2022-09-01T13:06:04.765Z,26.71
2022-09-01T13:08:34.716Z,25.03
2022-09-01T13:11:11.359Z,22.36
2022-09-01T13:13:39.248Z,21.63
2022-09-01T13:16:13.641Z,21.25
2022-09-01T13:21:32.197Z,23.46
2022-09-01T13:23:59.414Z,23.67
2022-09-01T13:26:26.885Z,23.50
2022-09-01T13:28:54.253Z,23.61
2022-09-01T13:31:29.336Z,21.75
2022-09-01T13:34:22.251Z,20.15
2022-09-01T13:36:47.078Z,19.35
2022-09-01T13:39:18.798Z,18.47
2022-09-01T13:41:47.270Z,17.78
2022-09-01T13:44:17.042Z,18.14
2022-09-01T13:47:28.230Z,19.47
2022-09-01T13:52:21.662Z,20.85
2022-09-01T13:54:48.779Z,21.39
2022-09-01T13:57:16.638Z,21.79
2022-09-01T13:59:44.632Z,20.93
2022-09-01T14:02:12.233Z,22.06
2022-09-01T14:04:39.661Z,23.53
2022-09-01T14:07:07.099Z,23.91
2022-09-01T14:09:35.472Z,24.60
2022-09-01T14:12:02.838Z,25.15
2022-09-01T14:17:17.360Z,25.41
2022-09-01T14:19:49.885Z,25.21
2022-09-01T14:22:17.398Z,25.37
2022-09-01T14:24:44.738Z,26.26
2022-09-01T14:27:12.103Z,26.00
2022-09-01T14:32:07.954Z,25.79
2022-09-01T14:34:37.472Z,26.10
2022-09-01T14:37:05.118Z,25.56
2022-09-01T14:39:32.511Z,26.08
2022-09-01T14:41:59.823Z,26.07
2022-09-01T14:44:27.073Z,25.47
2022-09-01T14:46:54.671Z,25.65
2022-09-01T14:49:22.571Z,25.30
2022-09-01T14:54:40.098Z,25.74
2022-09-01T14:59:54.839Z,26.58
2022-09-01T15:02:22.115Z,26.56
2022-09-01T15:04:49.388Z,26.60
2022-09-01T15:07:16.578Z,26.87
2022-09-01T15:09:47.065Z,26.98
2022-09-01T15:12:14.373Z,27.66
2022-09-01T15:14:41.564Z,27.94
2022-09-01T15:17:09.126Z,28.16
2022-09-01T15:19:36.207Z,28.58
2022-09-01T15:22:04.412Z,28.92
2022-09-01T15:24:31.584Z,29.10
2022-09-01T15:26:58.854Z,29.97
2022-09-01T15:29:26.110Z,30.82
2022-09-01T15:31:54.820Z,30.96
2022-09-01T15:34:22.085Z,31.07
2022-09-01T15:36:49.269Z,31.19
2022-09-01T15:39:16.544Z,31.11
2022-09-01T15:41:45.386Z,31.67
2022-09-01T15:44:12.891Z,31.79
2022-09-01T15:46:41.224Z,32.37
2022-09-01T15:49:10.750Z,32.38
2022-09-01T15:51:41.890Z,32.57
2022-09-01T15:54:15.109Z,33.34
2022-09-01T15:56:43.164Z,33.39
2022-09-01T15:59:11.969Z,33.72
2022-09-01T16:01:45.661Z,34.21
2022-09-01T16:04:19.969Z,33.85
2022-09-01T16:06:49.667Z,34.00
2022-09-01T16:09:18.767Z,34.18
2022-09-01T16:11:47.151Z,34.20
2022-09-01T16:14:16.061Z,33.67
2022-09-01T16:17:24.776Z,34.45
2022-09-01T16:20:04.399Z,34.54
2022-09-01T16:22:38.115Z,34.81
2022-09-01T16:25:17.686Z,34.76
2022-09-01T16:27:46.116Z,34.71
2022-09-01T16:30:22.424Z,34.78
2022-09-01T16:32:50.166Z,34.96
2022-09-01T16:35:19.788Z,34.84
2022-09-01T16:38:23.007Z,35.05
2022-09-01T16:41:08.168Z,35.32
2022-09-01T16:44:31.638Z,35.51
2022-09-01T16:47:08.162Z,35.50
2022-09-01T16:50:06.305Z,35.41
2022-09-01T16:53:05.743Z,35.83
2022-09-01T16:56:07.615Z,35.83
2022-09-01T16:59:06.729Z,36.09
2022-09-01T17:02:05.106Z,36.12
2022-09-01T17:04:44.292Z,36.34
2022-09-01T17:07:24.318Z,36.50
2022-09-01T17:10:21.089Z,36.51
2022-09-01T17:12:55.999Z,37.02
2022-09-01T17:15:41.191Z,37.19
2022-09-01T17:18:51.236Z,37.15
2022-09-01T17:21:32.292Z,37.58
2022-09-01T17:24:28.787Z,37.93
2022-09-01T17:27:04.813Z,37.79
2022-09-01T17:29:51.897Z,38.03
2022-09-01T17:32:59.296Z,38.18
2022-09-01T17:36:04.450Z,38.50
2022-09-01T17:38:54.226Z,39.11
2022-09-01T17:41:44.523Z,39.06
2022-09-01T17:44:41.165Z,39.88
2022-09-01T17:47:36.958Z,40.35
2022-09-01T17:50:15.381Z,40.47
2022-09-01T17:53:31.062Z,40.66
2022-09-01T17:56:30.009Z,41.25
2022-09-01T17:59:02.890Z,41.25
2022-09-01T18:02:06.983Z,41.22
2022-09-01T18:04:52.711Z,41.69
2022-09-01T18:07:37.859Z,41.89
2022-09-01T18:10:09.712Z,42.34
2022-09-01T18:12:40.368Z,42.43
2022-09-01T18:15:12.830Z,42.72
2022-09-01T18:17:46.537Z,43.10
2022-09-01T18:20:43.820Z,43.55
2022-09-01T18:23:15.843Z,44.52
2022-09-01T18:26:10.995Z,44.47
2022-09-01T18:28:38.201Z,45.43
2022-09-01T18:31:34.837Z,45.78
2022-09-01T18:34:32.947Z,46.49
2022-09-01T18:37:09.085Z,46.04
2022-09-01T18:39:52.931Z,45.74
2022-09-01T18:42:58.363Z,45.67
2022-09-01T18:45:32.151Z,45.91
2022-09-01T18:48:14.859Z,45.78
2022-09-01T18:51:17.504Z,46.13
2022-09-01T18:54:01.082Z,46.09
2022-09-01T18:56:37.941Z,46.34
2022-09-01T18:59:11.001Z,46.27
2022-09-01T19:01:51.565Z,46.50
2022-09-01T19:04:18.692Z,46.80
2022-09-01T19:07:17.514Z,47.26
2022-09-01T19:10:18.763Z,48.26
2022-09-01T19:13:13.351Z,48.64
2022-09-01T19:16:08.304Z,48.74
2022-09-01T19:18:45.506Z,48.54
2022-09-01T19:21:24.866Z,48.57
2022-09-01T19:24:31.684Z,48.78
2022-09-01T19:27:14.303Z,49.13
2022-09-01T19:29:59.348Z,49.18
2022-09-01T19:32:29.706Z,49.09
2022-09-01T19:34:59.895Z,49.27
2022-09-01T19:37:27.023Z,49.76
2022-09-01T19:39:54.674Z,50.01
2022-09-01T19:43:00.363Z,50.54
2022-09-01T19:45:37.648Z,50.77
2022-09-01T19:48:15.090Z,51.05
2022-09-01T19:51:32.278Z,51.26
2022-09-01T19:54:09.092Z,51.13
2022-09-01T19:57:17.878Z,51.62
2022-09-01T20:00:11.273Z,51.66
2022-09-01T20:03:16.933Z,51.62
2022-09-01T20:06:00.584Z,51.76
2022-09-01T20:09:07.405Z,51.75
2022-09-01T20:12:04.457Z,52.27
2022-09-01T20:14:59.833Z,52.12
2022-09-01T20:17:35.143Z,51.72
2022-09-01T20:20:22.163Z,52.27
2022-09-01T20:23:08.712Z,52.52
2022-09-01T20:26:05.530Z,52.49
2022-09-01T20:29:04.096Z,52.80
2022-09-01T20:31:45.539Z,52.90
2022-09-01T20:34:45.121Z,53.00
2022-09-01T20:37:26.738Z,52.83
2022-09-01T20:40:27.095Z,53.00
2022-09-01T20:43:22.604Z,53.00
2022-09-01T20:45:50.983Z,53.31
2022-09-01T20:48:27.519Z,53.41
2022-09-01T20:51:11.859Z,53.61
2022-09-01T20:54:22.077Z,53.67
2022-09-01T20:56:57.114Z,53.85
2022-09-01T20:59:59.513Z,53.99
2022-09-01T21:02:49.848Z,54.12
2022-09-01T21:05:22.992Z,54.26
2022-09-01T21:08:23.735Z,54.68
2022-09-01T21:11:21.326Z,54.83
2022-09-01T21:13:56.559Z,54.86
2022-09-01T21:17:11.171Z,55.00
2022-09-01T21:19:42.438Z,55.03
2022-09-01T21:22:14.496Z,55.00
2022-09-01T21:24:44.136Z,54.98
2022-09-01T21:27:22.720Z,55.13
2022-09-01T21:30:06.270Z,55.53
2022-09-01T21:32:34.784Z,55.81
2022-09-01T21:35:04.462Z,55.86
2022-09-01T21:37:35.038Z,56.07
2022-09-01T21:40:11.352Z,55.90
2022-09-01T21:42:49.739Z,55.85
2022-09-01T21:45:19.037Z,55.80
2022-09-01T21:47:48.941Z,55.80
2022-09-01T21:50:19.258Z,55.97
2022-09-01T21:52:46.727Z,56.23
2022-09-01T21:55:18.451Z,56.44
2022-09-01T21:57:49.302Z,56.59
2022-09-01T22:00:28.997Z,56.70
2022-09-01T22:03:01.793Z,56.85
2022-09-01T22:05:30.902Z,56.65
2022-09-01T22:07:59.008Z,56.71
2022-09-01T22:10:30.192Z,56.66
2022-09-01T22:13:03.693Z,56.69
2022-09-01T22:15:31.694Z,56.65
2022-09-01T22:17:59.034Z,56.94
2022-09-01T22:20:28.519Z,57.28
2022-09-01T22:23:01.848Z,57.01
2022-09-01T22:25:31.459Z,57.13
2022-09-01T22:28:05.201Z,57.25
2022-09-01T22:30:33.305Z,57.39
2022-09-01T22:33:02.087Z,57.50
2022-09-01T22:35:29.618Z,57.55
2022-09-01T22:37:56.797Z,57.70
2022-09-01T22:40:24.093Z,57.70
2022-09-01T22:42:52.505Z,57.32
2022-09-01T22:45:19.874Z,57.38
2022-09-01T22:47:47.012Z,57.31
2022-09-01T22:50:14.174Z,57.30
2022-09-01T22:52:42.047Z,57.22
2022-09-01T22:55:11.306Z,57.39
2022-09-01T22:57:38.833Z,57.48
2022-09-01T23:00:09.579Z,57.63
2022-09-01T23:02:37.762Z,57.83
2022-09-01T23:05:06.867Z,57.74
2022-09-01T23:07:39.479Z,58.01
2022-09-01T23:10:08.849Z,58.00
2022-09-01T23:12:36.142Z,58.16
2022-09-01T23:15:03.758Z,58.06
2022-09-01T23:17:30.935Z,58.13
2022-09-01T23:20:02.365Z,57.97
2022-09-01T23:22:29.564Z,57.86
2022-09-01T23:24:56.692Z,57.93
2022-09-01T23:27:24.161Z,57.53
2022-09-01T23:29:51.467Z,57.68
2022-09-01T23:32:18.599Z,57.85
2022-09-01T23:34:46.074Z,57.99
2022-09-01T23:37:13.235Z,58.06
2022-09-01T23:39:40.450Z,58.20
2022-09-01T23:42:07.912Z,58.10
2022-09-01T23:44:36.850Z,58.27
2022-09-01T23:47:04.204Z,58.26
2022-09-01T23:49:31.909Z,58.21
2022-09-01T23:51:59.115Z,58.08
2022-09-01T23:54:26.539Z,58.42
2022-09-01T23:56:53.676Z,58.44
2022-09-01T23:59:27.227Z,58.28
